sensor_id;sensor_type;location;lat;lon;timestamp;P1;durP1;ratioP1;P2;durP2;ratioP2
4174;SDS011;2101;48.290;14.382;2023-01-15T00:00:24;11.70;;;1.10;;
4174;SDS011;2101;48.290;14.382;2023-01-15T00:03:17;12.47;;;1.07;;
4174;SDS011;2101;48.290;14.382;2023-01-15T00:06:19;11.20;;;0.80;;
4174;SDS011;2101;48.290;14.382;2023-01-15T00:09:25;12.50;;;1.10;;
4174;SDS011;2101;48.290;14.382;2023-01-15T00:12:24;10.23;;;0.87;;
4174;SDS011;2101;48.290;14.382;2023-01-15T00:15:18;9.87;;;0.70;;
4174;SDS011;2101;48.290;14.382;2023-01-15T00:18:29;17.83;;;1.27;;
4174;SDS011;2101;48.290;14.382;2023-01-15T00:21:51;10.43;;;0.80;;
4174;SDS011;2101;48.290;14.382;2023-01-15T00:24:51;9.80;;;0.77;;
4174;SDS011;2101;48.290;14.382;2023-01-15T00:31:21;11.27;;;0.90;;
4174;SDS011;2101;48.290;14.382;2023-01-15T00:34:13;12.27;;;0.80;;
4174;SDS011;2101;48.290;14.382;2023-01-15T00:37:20;11.73;;;1.00;;
4174;SDS011;2101;48.290;14.382;2023-01-15T00:47:05;11.60;;;0.90;;
4174;SDS011;2101;48.290;14.382;2023-01-15T00:50:17;11.00;;;0.80;;
4174;SDS011;2101;48.290;14.382;2023-01-15T00:53:17;16.60;;;0.97;;
4174;SDS011;2101;48.290;14.382;2023-01-15T00:56:12;11.70;;;1.07;;
4174;SDS011;2101;48.290;14.382;2023-01-15T00:59:07;10.67;;;0.90;;
4174;SDS011;2101;48.290;14.382;2023-01-15T01:01:58;10.80;;;0.80;;
4174;SDS011;2101;48.290;14.382;2023-01-15T01:12:50;11.70;;;0.80;;
4174;SDS011;2101;48.290;14.382;2023-01-15T01:15:18;11.90;;;1.23;;
4174;SDS011;2101;48.290;14.382;2023-01-15T01:17:45;10.67;;;0.90;;
4174;SDS011;2101;48.290;14.382;2023-01-15T01:20:12;9.80;;;0.77;;
4174;SDS011;2101;48.290;14.382;2023-01-15T01:22:39;11.07;;;0.90;;
4174;SDS011;2101;48.290;14.382;2023-01-15T01:25:05;10.93;;;0.87;;
4174;SDS011;2101;48.290;14.382;2023-01-15T01:27:32;13.50;;;1.10;;
4174;SDS011;2101;48.290;14.382;2023-01-15T01:29:58;10.03;;;0.80;;
4174;SDS011;2101;48.290;14.382;2023-01-15T01:32:24;10.30;;;0.90;;
4174;SDS011;2101;48.290;14.382;2023-01-15T01:34:50;11.27;;;0.90;;
4174;SDS011;2101;48.290;14.382;2023-01-15T01:37:17;10.27;;;0.80;;
4174;SDS011;2101;48.290;14.382;2023-01-15T01:39:43;10.90;;;0.90;;
4174;SDS011;2101;48.290;14.382;2023-01-15T01:42:14;11.63;;;0.90;;
4174;SDS011;2101;48.290;14.382;2023-01-15T01:47:11;13.03;;;0.90;;
4174;SDS011;2101;48.290;14.382;2023-01-15T01:49:39;10.90;;;1.00;;
4174;SDS011;2101;48.290;14.382;2023-01-15T01:52:07;15.53;;;1.13;;
4174;SDS011;2101;48.290;14.382;2023-01-15T01:54:34;11.60;;;1.17;;
4174;SDS011;2101;48.290;14.382;2023-01-15T01:57:01;10.47;;;1.00;;
4174;SDS011;2101;48.290;14.382;2023-01-15T01:59:27;12.27;;;1.00;;
4174;SDS011;2101;48.290;14.382;2023-01-15T02:01:54;11.20;;;1.00;;
4174;SDS011;2101;48.290;14.382;2023-01-15T02:04:21;11.40;;;0.90;;
4174;SDS011;2101;48.290;14.382;2023-01-15T02:06:49;12.03;;;1.00;;
4174;SDS011;2101;48.290;14.382;2023-01-15T02:09:16;11.20;;;1.10;;
4174;SDS011;2101;48.290;14.382;2023-01-15T02:11:42;12.37;;;1.00;;
4174;SDS011;2101;48.290;14.382;2023-01-15T02:14:15;14.17;;;1.03;;
4174;SDS011;2101;48.290;14.382;2023-01-15T02:29:19;12.10;;;0.80;;
4174;SDS011;2101;48.290;14.382;2023-01-15T02:31:49;9.80;;;0.93;;
4174;SDS011;2101;48.290;14.382;2023-01-15T02:34:19;12.00;;;1.03;;
4174;SDS011;2101;48.290;14.382;2023-01-15T02:36:47;9.70;;;0.80;;
4174;SDS011;2101;48.290;14.382;2023-01-15T02:39:15;10.20;;;0.93;;
4174;SDS011;2101;48.290;14.382;2023-01-15T02:41:44;10.60;;;0.90;;
4174;SDS011;2101;48.290;14.382;2023-01-15T02:44:10;10.90;;;1.03;;
4174;SDS011;2101;48.290;14.382;2023-01-15T02:46:38;10.00;;;0.80;;
4174;SDS011;2101;48.290;14.382;2023-01-15T02:49:06;13.40;;;1.27;;
4174;SDS011;2101;48.290;14.382;2023-01-15T02:51:37;12.30;;;1.10;;
4174;SDS011;2101;48.290;14.382;2023-01-15T02:54:04;10.50;;;1.00;;
4174;SDS011;2101;48.290;14.382;2023-01-15T02:56:32;10.60;;;0.90;;
4174;SDS011;2101;48.290;14.382;2023-01-15T02:59:01;12.50;;;1.20;;
4174;SDS011;2101;48.290;14.382;2023-01-15T03:01:30;11.90;;;0.80;;
4174;SDS011;2101;48.290;14.382;2023-01-15T03:04:01;11.00;;;0.93;;
4174;SDS011;2101;48.290;14.382;2023-01-15T03:09:00;9.83;;;0.70;;
4174;SDS011;2101;48.290;14.382;2023-01-15T03:11:26;9.90;;;0.80;;
4174;SDS011;2101;48.290;14.382;2023-01-15T03:14:01;10.17;;;0.90;;
4174;SDS011;2101;48.290;14.382;2023-01-15T03:24:30;13.93;;;0.73;;
4174;SDS011;2101;48.290;14.382;2023-01-15T03:26:57;10.60;;;0.80;;
4174;SDS011;2101;48.290;14.382;2023-01-15T03:29:24;9.40;;;0.60;;
4174;SDS011;2101;48.290;14.382;2023-01-15T03:31:52;9.63;;;0.73;;
4174;SDS011;2101;48.290;14.382;2023-01-15T03:34:18;11.40;;;0.70;;
4174;SDS011;2101;48.290;14.382;2023-01-15T03:36:45;9.80;;;0.70;;
4174;SDS011;2101;48.290;14.382;2023-01-15T03:39:11;11.50;;;0.93;;
4174;SDS011;2101;48.290;14.382;2023-01-15T03:41:56;10.00;;;0.80;;
4174;SDS011;2101;48.290;14.382;2023-01-15T03:44:33;10.40;;;0.80;;
4174;SDS011;2101;48.290;14.382;2023-01-15T03:47:13;16.13;;;0.90;;
4174;SDS011;2101;48.290;14.382;2023-01-15T03:49:48;11.40;;;0.90;;
4174;SDS011;2101;48.290;14.382;2023-01-15T03:52:18;9.80;;;0.90;;
4174;SDS011;2101;48.290;14.382;2023-01-15T03:57:36;9.80;;;0.93;;
4174;SDS011;2101;48.290;14.382;2023-01-15T04:00:03;11.80;;;0.70;;
4174;SDS011;2101;48.290;14.382;2023-01-15T04:02:32;10.87;;;1.10;;
4174;SDS011;2101;48.290;14.382;2023-01-15T04:04:58;9.47;;;0.70;;
4174;SDS011;2101;48.290;14.382;2023-01-15T04:07:24;10.80;;;0.80;;
4174;SDS011;2101;48.290;14.382;2023-01-15T04:09:51;9.70;;;0.63;;
4174;SDS011;2101;48.290;14.382;2023-01-15T04:12:17;9.90;;;0.70;;
4174;SDS011;2101;48.290;14.382;2023-01-15T04:14:43;10.13;;;0.70;;
4174;SDS011;2101;48.290;14.382;2023-01-15T04:17:10;9.90;;;0.60;;
4174;SDS011;2101;48.290;14.382;2023-01-15T04:19:36;13.07;;;0.90;;
4174;SDS011;2101;48.290;14.382;2023-01-15T04:22:02;9.93;;;0.70;;
4174;SDS011;2101;48.290;14.382;2023-01-15T04:24:28;9.60;;;0.70;;
4174;SDS011;2101;48.290;14.382;2023-01-15T04:26:54;9.70;;;0.70;;
4174;SDS011;2101;48.290;14.382;2023-01-15T04:29:20;9.67;;;0.70;;
4174;SDS011;2101;48.290;14.382;2023-01-15T04:31:47;10.43;;;0.80;;
4174;SDS011;2101;48.290;14.382;2023-01-15T04:34:16;13.30;;;1.17;;
4174;SDS011;2101;48.290;14.382;2023-01-15T04:36:42;10.70;;;0.90;;
4174;SDS011;2101;48.290;14.382;2023-01-15T04:39:10;11.83;;;1.30;;
4174;SDS011;2101;48.290;14.382;2023-01-15T04:41:36;13.53;;;1.27;;
4174;SDS011;2101;48.290;14.382;2023-01-15T04:44:21;12.83;;;1.90;;
4174;SDS011;2101;48.290;14.382;2023-01-15T04:46:52;14.43;;;2.10;;
4174;SDS011;2101;48.290;14.382;2023-01-15T04:49:18;12.90;;;1.60;;
4174;SDS011;2101;48.290;14.382;2023-01-15T04:51:44;17.73;;;1.47;;
4174;SDS011;2101;48.290;14.382;2023-01-15T04:54:11;16.43;;;2.40;;
4174;SDS011;2101;48.290;14.382;2023-01-15T04:56:40;11.60;;;1.60;;
4174;SDS011;2101;48.290;14.382;2023-01-15T04:59:07;12.70;;;1.93;;
4174;SDS011;2101;48.290;14.382;2023-01-15T05:01:34;15.00;;;1.97;;
4174;SDS011;2101;48.290;14.382;2023-01-15T05:04:01;11.03;;;1.27;;
4174;SDS011;2101;48.290;14.382;2023-01-15T05:06:27;11.77;;;1.27;;
4174;SDS011;2101;48.290;14.382;2023-01-15T05:11:27;18.60;;;2.00;;
4174;SDS011;2101;48.290;14.382;2023-01-15T05:13:56;14.93;;;1.97;;
4174;SDS011;2101;48.290;14.382;2023-01-15T05:16:27;12.00;;;1.67;;
4174;SDS011;2101;48.290;14.382;2023-01-15T05:18:56;13.10;;;2.03;;
4174;SDS011;2101;48.290;14.382;2023-01-15T05:21:27;13.97;;;2.17;;
4174;SDS011;2101;48.290;14.382;2023-01-15T05:23:56;15.03;;;1.37;;
4174;SDS011;2101;48.290;14.382;2023-01-15T05:26:23;10.70;;;0.70;;
4174;SDS011;2101;48.290;14.382;2023-01-15T05:28:54;10.60;;;1.00;;
4174;SDS011;2101;48.290;14.382;2023-01-15T05:31:23;10.50;;;0.90;;
4174;SDS011;2101;48.290;14.382;2023-01-15T05:33:51;12.73;;;1.33;;
4174;SDS011;2101;48.290;14.382;2023-01-15T05:36:21;10.70;;;1.00;;
4174;SDS011;2101;48.290;14.382;2023-01-15T05:38:49;11.10;;;1.10;;
4174;SDS011;2101;48.290;14.382;2023-01-15T05:41:17;10.23;;;1.10;;
4174;SDS011;2101;48.290;14.382;2023-01-15T05:44:05;10.37;;;0.97;;
4174;SDS011;2101;48.290;14.382;2023-01-15T05:46:37;11.17;;;0.97;;
4174;SDS011;2101;48.290;14.382;2023-01-15T05:49:13;11.80;;;1.00;;
4174;SDS011;2101;48.290;14.382;2023-01-15T05:51:41;11.47;;;1.30;;
4174;SDS011;2101;48.290;14.382;2023-01-15T05:54:26;11.53;;;1.10;;
4174;SDS011;2101;48.290;14.382;2023-01-15T05:56:53;12.50;;;1.37;;
4174;SDS011;2101;48.290;14.382;2023-01-15T05:59:29;12.63;;;1.40;;
4174;SDS011;2101;48.290;14.382;2023-01-15T06:02:03;14.77;;;2.03;;
4174;SDS011;2101;48.290;14.382;2023-01-15T06:04:29;14.13;;;1.80;;
4174;SDS011;2101;48.290;14.382;2023-01-15T06:06:57;14.90;;;1.63;;
4174;SDS011;2101;48.290;14.382;2023-01-15T06:09:37;12.20;;;1.27;;
4174;SDS011;2101;48.290;14.382;2023-01-15T06:12:07;10.93;;;1.20;;
4174;SDS011;2101;48.290;14.382;2023-01-15T06:14:40;14.17;;;1.00;;
4174;SDS011;2101;48.290;14.382;2023-01-15T06:17:07;17.97;;;1.00;;
4174;SDS011;2101;48.290;14.382;2023-01-15T06:19:33;14.13;;;1.27;;
4174;SDS011;2101;48.290;14.382;2023-01-15T06:22:00;10.60;;;1.00;;
4174;SDS011;2101;48.290;14.382;2023-01-15T06:24:31;11.87;;;0.80;;
4174;SDS011;2101;48.290;14.382;2023-01-15T06:26:58;10.77;;;0.90;;
4174;SDS011;2101;48.290;14.382;2023-01-15T06:29:25;10.20;;;0.83;;
4174;SDS011;2101;48.290;14.382;2023-01-15T06:31:53;11.63;;;0.80;;
4174;SDS011;2101;48.290;14.382;2023-01-15T06:34:20;13.47;;;1.20;;
4174;SDS011;2101;48.290;14.382;2023-01-15T06:36:46;10.10;;;0.80;;
4174;SDS011;2101;48.290;14.382;2023-01-15T06:39:15;10.40;;;0.97;;
4174;SDS011;2101;48.290;14.382;2023-01-15T06:41:46;11.30;;;0.93;;
4174;SDS011;2101;48.290;14.382;2023-01-15T06:44:31;14.23;;;1.20;;
4174;SDS011;2101;48.290;14.382;2023-01-15T06:47:23;10.37;;;1.00;;
4174;SDS011;2101;48.290;14.382;2023-01-15T06:49:55;11.40;;;1.37;;
4174;SDS011;2101;48.290;14.382;2023-01-15T06:52:22;14.90;;;1.37;;
4174;SDS011;2101;48.290;14.382;2023-01-15T06:54:57;12.27;;;1.00;;
4174;SDS011;2101;48.290;14.382;2023-01-15T06:57:23;12.53;;;1.00;;
4174;SDS011;2101;48.290;14.382;2023-01-15T06:59:52;11.27;;;1.00;;
4174;SDS011;2101;48.290;14.382;2023-01-15T07:02:18;12.67;;;1.30;;
4174;SDS011;2101;48.290;14.382;2023-01-15T07:04:46;10.30;;;0.90;;
4174;SDS011;2101;48.290;14.382;2023-01-15T07:07:13;11.03;;;0.93;;
4174;SDS011;2101;48.290;14.382;2023-01-15T07:09:41;10.90;;;1.00;;
4174;SDS011;2101;48.290;14.382;2023-01-15T07:12:08;10.20;;;0.80;;
4174;SDS011;2101;48.290;14.382;2023-01-15T07:14:36;10.20;;;0.83;;
4174;SDS011;2101;48.290;14.382;2023-01-15T07:17:03;11.20;;;1.07;;
4174;SDS011;2101;48.290;14.382;2023-01-15T07:19:29;13.30;;;1.67;;
4174;SDS011;2101;48.290;14.382;2023-01-15T07:21:55;10.17;;;0.90;;
4174;SDS011;2101;48.290;14.382;2023-01-15T07:24:23;11.30;;;1.00;;
4174;SDS011;2101;48.290;14.382;2023-01-15T07:26:49;9.80;;;0.90;;
4174;SDS011;2101;48.290;14.382;2023-01-15T07:29:18;9.90;;;0.80;;
4174;SDS011;2101;48.290;14.382;2023-01-15T07:31:45;12.13;;;0.80;;
4174;SDS011;2101;48.290;14.382;2023-01-15T07:34:12;12.17;;;1.20;;
4174;SDS011;2101;48.290;14.382;2023-01-15T07:36:38;13.40;;;1.57;;
4174;SDS011;2101;48.290;14.382;2023-01-15T07:39:05;9.80;;;1.00;;
4174;SDS011;2101;48.290;14.382;2023-01-15T07:41:31;10.50;;;0.93;;
4174;SDS011;2101;48.290;14.382;2023-01-15T07:44:16;10.90;;;0.93;;
4174;SDS011;2101;48.290;14.382;2023-01-15T07:47:01;10.53;;;1.10;;
4174;SDS011;2101;48.290;14.382;2023-01-15T07:49:48;10.80;;;1.20;;
4174;SDS011;2101;48.290;14.382;2023-01-15T08:10:27;11.40;;;0.90;;
4174;SDS011;2101;48.290;14.382;2023-01-15T08:13:12;10.87;;;1.20;;
4174;SDS011;2101;48.290;14.382;2023-01-15T08:15:57;11.13;;;1.30;;
4174;SDS011;2101;48.290;14.382;2023-01-15T08:18:23;11.80;;;1.07;;
4174;SDS011;2101;48.290;14.382;2023-01-15T08:20:57;12.10;;;1.30;;
4174;SDS011;2101;48.290;14.382;2023-01-15T08:23:23;11.87;;;1.20;;
4174;SDS011;2101;48.290;14.382;2023-01-15T08:25:50;12.60;;;1.47;;
4174;SDS011;2101;48.290;14.382;2023-01-15T08:28:21;12.20;;;1.13;;
4174;SDS011;2101;48.290;14.382;2023-01-15T08:30:53;11.27;;;1.20;;
4174;SDS011;2101;48.290;14.382;2023-01-15T08:33:19;11.23;;;1.30;;
4174;SDS011;2101;48.290;14.382;2023-01-15T08:35:57;10.50;;;1.07;;
4174;SDS011;2101;48.290;14.382;2023-01-15T08:38:24;11.03;;;1.47;;
4174;SDS011;2101;48.290;14.382;2023-01-15T08:41:06;12.10;;;1.23;;
4174;SDS011;2101;48.290;14.382;2023-01-15T08:43:35;13.80;;;2.13;;
4174;SDS011;2101;48.290;14.382;2023-01-15T08:46:07;12.13;;;1.20;;
4174;SDS011;2101;48.290;14.382;2023-01-15T08:48:41;12.13;;;1.40;;
4174;SDS011;2101;48.290;14.382;2023-01-15T08:51:08;13.13;;;1.67;;
4174;SDS011;2101;48.290;14.382;2023-01-15T08:53:38;13.00;;;1.40;;
4174;SDS011;2101;48.290;14.382;2023-01-15T08:56:18;11.23;;;1.30;;
4174;SDS011;2101;48.290;14.382;2023-01-15T08:58:45;12.13;;;1.27;;
4174;SDS011;2101;48.290;14.382;2023-01-15T09:01:34;14.30;;;1.10;;
4174;SDS011;2101;48.290;14.382;2023-01-15T09:04:01;11.17;;;1.20;;
4174;SDS011;2101;48.290;14.382;2023-01-15T09:06:35;11.00;;;1.00;;
4174;SDS011;2101;48.290;14.382;2023-01-15T09:09:04;13.10;;;1.37;;
4174;SDS011;2101;48.290;14.382;2023-01-15T09:11:31;13.73;;;1.70;;
4174;SDS011;2101;48.290;14.382;2023-01-15T09:13:59;13.03;;;1.40;;
4174;SDS011;2101;48.290;14.382;2023-01-15T09:16:25;11.30;;;1.40;;
4174;SDS011;2101;48.290;14.382;2023-01-15T09:18:54;11.37;;;1.57;;
4174;SDS011;2101;48.290;14.382;2023-01-15T09:21:20;11.90;;;1.70;;
4174;SDS011;2101;48.290;14.382;2023-01-15T09:23:48;15.73;;;1.70;;
4174;SDS011;2101;48.290;14.382;2023-01-15T09:26:29;15.03;;;2.03;;
4174;SDS011;2101;48.290;14.382;2023-01-15T09:29:03;12.37;;;1.63;;
4174;SDS011;2101;48.290;14.382;2023-01-15T09:31:41;11.63;;;1.40;;
4174;SDS011;2101;48.290;14.382;2023-01-15T09:34:27;14.30;;;1.57;;
4174;SDS011;2101;48.290;14.382;2023-01-15T09:37:08;14.53;;;2.20;;
4174;SDS011;2101;48.290;14.382;2023-01-15T09:39:38;11.43;;;1.47;;
4174;SDS011;2101;48.290;14.382;2023-01-15T09:45:46;14.40;;;1.93;;
4174;SDS011;2101;48.290;14.382;2023-01-15T09:48:54;13.97;;;1.63;;
4174;SDS011;2101;48.290;14.382;2023-01-15T09:57:09;17.97;;;1.90;;
4174;SDS011;2101;48.290;14.382;2023-01-15T09:59:40;12.47;;;1.63;;
4174;SDS011;2101;48.290;14.382;2023-01-15T10:02:18;12.83;;;1.50;;
4174;SDS011;2101;48.290;14.382;2023-01-15T10:04:47;14.73;;;1.90;;
4174;SDS011;2101;48.290;14.382;2023-01-15T10:07:23;15.70;;;1.70;;
4174;SDS011;2101;48.290;14.382;2023-01-15T10:09:56;11.77;;;1.50;;
4174;SDS011;2101;48.290;14.382;2023-01-15T10:12:26;11.50;;;1.90;;
4174;SDS011;2101;48.290;14.382;2023-01-15T10:18:05;12.90;;;1.23;;
4174;SDS011;2101;48.290;14.382;2023-01-15T10:29:50;16.13;;;2.00;;
4174;SDS011;2101;48.290;14.382;2023-01-15T10:32:54;13.07;;;1.83;;
4174;SDS011;2101;48.290;14.382;2023-01-15T10:36:04;11.93;;;2.03;;
4174;SDS011;2101;48.290;14.382;2023-01-15T10:47:10;14.00;;;1.60;;
4174;SDS011;2101;48.290;14.382;2023-01-15T10:50:17;12.63;;;2.00;;
4174;SDS011;2101;48.290;14.382;2023-01-15T17:36:07;15.23;;;2.17;;
4174;SDS011;2101;48.290;14.382;2023-01-15T22:51:44;16.80;;;3.50;;
4174;SDS011;2101;48.290;14.382;2023-01-15T22:54:17;21.27;;;4.20;;
4174;SDS011;2101;48.290;14.382;2023-01-15T22:56:46;18.50;;;4.43;;
4174;SDS011;2101;48.290;14.382;2023-01-15T23:12:20;19.33;;;3.90;;
4174;SDS011;2101;48.290;14.382;2023-01-15T23:15:14;15.07;;;2.90;;
4174;SDS011;2101;48.290;14.382;2023-01-15T23:17:45;18.07;;;4.30;;
4174;SDS011;2101;48.290;14.382;2023-01-15T23:20:12;14.07;;;2.03;;
4174;SDS011;2101;48.290;14.382;2023-01-15T23:23:01;21.30;;;2.53;;
4174;SDS011;2101;48.290;14.382;2023-01-15T23:25:29;11.60;;;1.60;;
4174;SDS011;2101;48.290;14.382;2023-01-15T23:28:13;24.00;;;5.00;;
4174;SDS011;2101;48.290;14.382;2023-01-15T23:30:42;23.30;;;6.67;;
4174;SDS011;2101;48.290;14.382;2023-01-15T23:33:27;22.17;;;6.50;;
4174;SDS011;2101;48.290;14.382;2023-01-15T23:36:02;27.80;;;6.23;;
4174;SDS011;2101;48.290;14.382;2023-01-15T23:38:41;27.00;;;6.50;;
4174;SDS011;2101;48.290;14.382;2023-01-15T23:41:14;21.43;;;6.10;;
4174;SDS011;2101;48.290;14.382;2023-01-15T23:44:16;23.10;;;5.73;;
